Airfield :
LOGIN :

Register | Disclaimer

   EN    FR    IT 

 










Legend :    VFR   Marginal VFR   IFR   Intensive IFR   Very Intensive IFR
Visi :
Ceiling :
>= 8 km
>= 3000ft
5 to 8 km
1000 to 3000 ft
1500m to 5 km
500 to 1000 ft
800 to 1500m
200 to 500 ft
< 800m
< 200 ft
Symbols :   Thunderstorms  Fog  Heavy snow  Heavy precipitations  Wind > 20 kt
SIGMETs :     Misc.  Thunderstorms  Icing  Turbulence  Mountain Waves  Volcanic Ashes






- Airport Elevation : 13 ft
- IATA code : SNR


LFRZ - St-Nazaire

CURRENT METAR :
  • 262030Z AUTO 21017KT 5000 RA BR SCT010/// OVC016/// ///TCU 11/10 Q1013 TEMPO 22015G35KT 2000 RA OVC003

EXPIRED METARs :
  • 262000Z AUTO 21015KT 6000 -RA OVC017/// ///CB 11/10 Q1014 TEMPO 22015G35KT 2000 RA OVC003
  • 261930Z AUTO 21018KT 6000 RA OVC018/// ///CB 11/10 Q1014 TEMPO 22015G35KT 2000 RA OVC003
  • 261900Z AUTO 20016KT 9999 OVC021/// ///CB 11/10 Q1014 TEMPO 22015G35KT 2000 RA OVC003
  • 261830Z AUTO 20015KT 9999 BKN026/// BKN031/// OVC037/// ///TCU 11/10 Q1014 TEMPO 22015G35KT 2000 RA OVC003
  • 261800Z AUTO 20014KT 9999 FEW022 BKN033 BKN042 11/10 Q1014 TEMPO 22015G35KT 2000 RA OVC003

TAF AMD TAF LFRZ
Valid from the 26 at 19:00 until the 27 at 18:00 UTC


261948Z 2619/2718 22015G25KT 9999 BKN020
BECMG 2619/2620 4000 -RA OVC012
TEMPO 2619/2716 22015G35KT 2000 RA OVC003
BECMG 2716/2718 9999 NSW BKN020



MET'MAP, your aeronautical weather chart ! - Copyright ORBIFLY December 2007 - Disclaimer

ORBIFLY MET'MAP TEAM :

Programming & Development : Alexandra Zaïnal
Concept & original design : Baudouin d'Aumeries
Assistance for programming : Marc-Olivier Méhu
Technical & hardware support : Manuel Goepfert

Contact : metmap@orbifly.com




SOURCES & CREDITS :

   NOAA